Terminal Aerodrome Forecast
Issued by NWS

Current Version | Previous Version | Text Only | Print | Product List | Glossary Off
Versions: 1 2 3 4 5 6 7 8 9 10 11 12 13 14 15 16

000
FTUS41 KPBZ 141744 AAA
TAFMGW
TAF AMD
KMGW 141744Z 1418/1518 17003KT P6SM SKC
     FM151200 20011G22KT P6SM SCT250
     FM151700 23017G30KT P6SM BKN080=

USA.gov is the U.S. government's official web portal to all federal, state and local government web resources and services.